Terminal Aerodrome Forecast
Issued by NWS Brownsville, TX

Home | Current Version | Previous Version | Text Only | Print | Product List | Glossary On
Versions: 1 2 3 4 5 6 7 8 9 10 11 12 13 14
000
FTUS44 KBRO 171720
TAFHRL
TAF
KHRL 171720Z 1718/1818 16017G24KT P6SM SCT045
     FM180200 15010KT P6SM SKC
     FM180600 15006KT P6SM FEW020
     FM181500 15010KT P6SM SCT050=

USA.gov is the U.S. government's official web portal to all federal, state and local government web resources and services.